sensor_id;sensor_type;location;lat;lon;timestamp;temperature;humidity
23124;DHT22;11731;48.592;8.858;2023-09-07T00:00:58;17.40;99.90
23124;DHT22;11731;48.592;8.858;2023-09-07T00:03:26;17.50;99.90
23124;DHT22;11731;48.592;8.858;2023-09-07T00:05:53;17.30;99.90
23124;DHT22;11731;48.592;8.858;2023-09-07T00:08:20;17.30;99.90
23124;DHT22;11731;48.592;8.858;2023-09-07T00:10:46;17.20;99.90
23124;DHT22;11731;48.592;8.858;2023-09-07T00:13:13;17.20;99.90
23124;DHT22;11731;48.592;8.858;2023-09-07T00:15:42;17.30;99.90
23124;DHT22;11731;48.592;8.858;2023-09-07T00:18:09;17.10;99.90
23124;DHT22;11731;48.592;8.858;2023-09-07T00:20:36;16.70;99.90
23124;DHT22;11731;48.592;8.858;2023-09-07T00:23:03;16.40;99.90
23124;DHT22;11731;48.592;8.858;2023-09-07T00:25:30;16.30;99.90
23124;DHT22;11731;48.592;8.858;2023-09-07T00:27:57;16.40;99.90
23124;DHT22;11731;48.592;8.858;2023-09-07T00:30:24;16.10;99.90
23124;DHT22;11731;48.592;8.858;2023-09-07T00:32:53;16.20;99.90
23124;DHT22;11731;48.592;8.858;2023-09-07T00:35:19;16.00;99.90
23124;DHT22;11731;48.592;8.858;2023-09-07T00:37:48;16.10;99.90
23124;DHT22;11731;48.592;8.858;2023-09-07T00:40:15;16.10;99.90
23124;DHT22;11731;48.592;8.858;2023-09-07T00:42:42;16.30;99.90
23124;DHT22;11731;48.592;8.858;2023-09-07T00:45:09;16.40;99.90
23124;DHT22;11731;48.592;8.858;2023-09-07T00:47:37;16.40;99.90
23124;DHT22;11731;48.592;8.858;2023-09-07T00:50:06;16.60;99.90
23124;DHT22;11731;48.592;8.858;2023-09-07T00:52:34;16.40;99.90
23124;DHT22;11731;48.592;8.858;2023-09-07T00:55:02;16.30;99.90
23124;DHT22;11731;48.592;8.858;2023-09-07T00:57:30;16.50;99.90
23124;DHT22;11731;48.592;8.858;2023-09-07T00:59:57;16.50;99.90
23124;DHT22;11731;48.592;8.858;2023-09-07T01:02:24;16.60;99.90
23124;DHT22;11731;48.592;8.858;2023-09-07T01:04:51;16.80;99.90
23124;DHT22;11731;48.592;8.858;2023-09-07T01:07:21;16.80;99.90
23124;DHT22;11731;48.592;8.858;2023-09-07T01:09:54;17.00;99.90
23124;DHT22;11731;48.592;8.858;2023-09-07T01:12:22;16.70;99.90
23124;DHT22;11731;48.592;8.858;2023-09-07T01:14:51;16.20;99.90
23124;DHT22;11731;48.592;8.858;2023-09-07T01:17:18;16.20;99.90
23124;DHT22;11731;48.592;8.858;2023-09-07T01:19:48;16.30;99.90
23124;DHT22;11731;48.592;8.858;2023-09-07T01:22:18;16.10;99.90
23124;DHT22;11731;48.592;8.858;2023-09-07T01:24:45;16.10;99.90
23124;DHT22;11731;48.592;8.858;2023-09-07T01:27:13;16.10;99.90
23124;DHT22;11731;48.592;8.858;2023-09-07T01:29:40;16.00;99.90
23124;DHT22;11731;48.592;8.858;2023-09-07T01:32:07;15.80;99.90
23124;DHT22;11731;48.592;8.858;2023-09-07T01:34:35;16.10;99.90
23124;DHT22;11731;48.592;8.858;2023-09-07T01:37:02;16.40;99.90
23124;DHT22;11731;48.592;8.858;2023-09-07T01:39:30;16.30;99.90
23124;DHT22;11731;48.592;8.858;2023-09-07T01:41:57;16.30;99.90
23124;DHT22;11731;48.592;8.858;2023-09-07T01:44:24;16.20;99.90
23124;DHT22;11731;48.592;8.858;2023-09-07T01:46:52;16.30;99.90
23124;DHT22;11731;48.592;8.858;2023-09-07T01:49:19;16.20;99.90
23124;DHT22;11731;48.592;8.858;2023-09-07T01:51:46;16.10;99.90
23124;DHT22;11731;48.592;8.858;2023-09-07T01:54:13;16.00;99.90
23124;DHT22;11731;48.592;8.858;2023-09-07T01:56:41;15.90;99.90
23124;DHT22;11731;48.592;8.858;2023-09-07T01:59:08;16.10;99.90
23124;DHT22;11731;48.592;8.858;2023-09-07T02:01:34;15.90;99.90
23124;DHT22;11731;48.592;8.858;2023-09-07T02:04:03;16.10;99.90
23124;DHT22;11731;48.592;8.858;2023-09-07T02:06:30;15.80;99.90
23124;DHT22;11731;48.592;8.858;2023-09-07T02:08:57;15.50;99.90
23124;DHT22;11731;48.592;8.858;2023-09-07T02:11:24;15.60;99.90
23124;DHT22;11731;48.592;8.858;2023-09-07T02:13:52;15.70;99.90
23124;DHT22;11731;48.592;8.858;2023-09-07T02:16:19;16.00;99.90
23124;DHT22;11731;48.592;8.858;2023-09-07T02:18:49;16.20;99.90
23124;DHT22;11731;48.592;8.858;2023-09-07T02:21:16;16.00;99.90
23124;DHT22;11731;48.592;8.858;2023-09-07T02:23:43;16.10;99.90
23124;DHT22;11731;48.592;8.858;2023-09-07T02:26:10;16.30;99.90
23124;DHT22;11731;48.592;8.858;2023-09-07T02:28:37;16.50;99.90
23124;DHT22;11731;48.592;8.858;2023-09-07T02:31:06;16.40;99.90
23124;DHT22;11731;48.592;8.858;2023-09-07T02:33:33;16.50;99.90
23124;DHT22;11731;48.592;8.858;2023-09-07T02:36:00;16.20;99.90
23124;DHT22;11731;48.592;8.858;2023-09-07T02:38:28;16.20;99.90
23124;DHT22;11731;48.592;8.858;2023-09-07T02:40:56;16.10;99.90
23124;DHT22;11731;48.592;8.858;2023-09-07T02:43:23;16.20;99.90
23124;DHT22;11731;48.592;8.858;2023-09-07T02:45:50;16.10;99.90
23124;DHT22;11731;48.592;8.858;2023-09-07T02:48:18;16.30;99.90
23124;DHT22;11731;48.592;8.858;2023-09-07T02:50:45;16.40;99.90
23124;DHT22;11731;48.592;8.858;2023-09-07T02:53:14;16.30;99.90
23124;DHT22;11731;48.592;8.858;2023-09-07T02:55:41;16.40;99.90
23124;DHT22;11731;48.592;8.858;2023-09-07T02:58:08;16.30;99.90
23124;DHT22;11731;48.592;8.858;2023-09-07T03:00:34;16.10;99.90
23124;DHT22;11731;48.592;8.858;2023-09-07T03:03:02;15.70;99.90
23124;DHT22;11731;48.592;8.858;2023-09-07T03:05:30;15.80;99.90
23124;DHT22;11731;48.592;8.858;2023-09-07T03:07:57;16.00;99.90
23124;DHT22;11731;48.592;8.858;2023-09-07T03:10:24;16.00;99.90
23124;DHT22;11731;48.592;8.858;2023-09-07T03:12:51;15.80;99.90
23124;DHT22;11731;48.592;8.858;2023-09-07T03:15:20;15.70;99.90
23124;DHT22;11731;48.592;8.858;2023-09-07T03:17:47;15.80;99.90
23124;DHT22;11731;48.592;8.858;2023-09-07T03:20:14;15.80;99.90
23124;DHT22;11731;48.592;8.858;2023-09-07T03:22:43;15.80;99.90
23124;DHT22;11731;48.592;8.858;2023-09-07T03:25:11;15.80;99.90
23124;DHT22;11731;48.592;8.858;2023-09-07T03:27:38;15.70;99.90
23124;DHT22;11731;48.592;8.858;2023-09-07T03:30:06;15.80;99.90
23124;DHT22;11731;48.592;8.858;2023-09-07T03:32:33;15.50;99.90
23124;DHT22;11731;48.592;8.858;2023-09-07T03:35:00;15.60;99.90
23124;DHT22;11731;48.592;8.858;2023-09-07T03:37:28;15.70;99.90
23124;DHT22;11731;48.592;8.858;2023-09-07T03:39:56;15.70;99.90
23124;DHT22;11731;48.592;8.858;2023-09-07T03:42:23;15.60;99.90
23124;DHT22;11731;48.592;8.858;2023-09-07T03:44:50;15.50;99.90
23124;DHT22;11731;48.592;8.858;2023-09-07T03:47:17;15.60;99.90
23124;DHT22;11731;48.592;8.858;2023-09-07T03:49:44;15.80;99.90
23124;DHT22;11731;48.592;8.858;2023-09-07T03:52:11;15.70;99.90
23124;DHT22;11731;48.592;8.858;2023-09-07T03:54:37;15.80;99.90
23124;DHT22;11731;48.592;8.858;2023-09-07T03:57:06;15.70;99.90
23124;DHT22;11731;48.592;8.858;2023-09-07T03:59:33;15.70;99.90
23124;DHT22;11731;48.592;8.858;2023-09-07T04:02:02;15.70;99.90
23124;DHT22;11731;48.592;8.858;2023-09-07T04:04:30;15.60;99.90
23124;DHT22;11731;48.592;8.858;2023-09-07T04:06:57;15.50;99.90
23124;DHT22;11731;48.592;8.858;2023-09-07T04:09:24;15.50;99.90
23124;DHT22;11731;48.592;8.858;2023-09-07T04:11:51;15.70;99.90
23124;DHT22;11731;48.592;8.858;2023-09-07T04:14:19;15.70;99.90
23124;DHT22;11731;48.592;8.858;2023-09-07T04:16:48;15.70;99.90
23124;DHT22;11731;48.592;8.858;2023-09-07T04:19:16;15.80;99.90
23124;DHT22;11731;48.592;8.858;2023-09-07T04:21:43;15.90;99.90
23124;DHT22;11731;48.592;8.858;2023-09-07T04:24:09;15.90;99.90
23124;DHT22;11731;48.592;8.858;2023-09-07T04:26:37;15.90;99.90
23124;DHT22;11731;48.592;8.858;2023-09-07T04:29:04;15.90;99.90
23124;DHT22;11731;48.592;8.858;2023-09-07T04:31:34;15.90;99.90
23124;DHT22;11731;48.592;8.858;2023-09-07T04:34:01;15.90;99.90
23124;DHT22;11731;48.592;8.858;2023-09-07T04:36:28;16.00;99.90
23124;DHT22;11731;48.592;8.858;2023-09-07T04:38:55;15.90;99.90
23124;DHT22;11731;48.592;8.858;2023-09-07T04:41:23;15.90;99.90
23124;DHT22;11731;48.592;8.858;2023-09-07T04:43:50;15.70;99.90
23124;DHT22;11731;48.592;8.858;2023-09-07T04:46:16;15.60;99.90
23124;DHT22;11731;48.592;8.858;2023-09-07T04:48:45;15.50;99.90
23124;DHT22;11731;48.592;8.858;2023-09-07T04:51:11;15.60;99.90
23124;DHT22;11731;48.592;8.858;2023-09-07T04:53:39;15.60;99.90
23124;DHT22;11731;48.592;8.858;2023-09-07T04:56:07;15.70;99.90
23124;DHT22;11731;48.592;8.858;2023-09-07T04:58:35;15.70;99.90
23124;DHT22;11731;48.592;8.858;2023-09-07T05:01:02;15.80;99.90
23124;DHT22;11731;48.592;8.858;2023-09-07T05:03:30;15.80;99.90
23124;DHT22;11731;48.592;8.858;2023-09-07T05:05:59;15.80;99.90
23124;DHT22;11731;48.592;8.858;2023-09-07T05:08:26;15.80;99.90
23124;DHT22;11731;48.592;8.858;2023-09-07T05:10:55;15.90;99.90
23124;DHT22;11731;48.592;8.858;2023-09-07T05:13:23;15.90;99.90
23124;DHT22;11731;48.592;8.858;2023-09-07T05:15:50;15.80;99.90
23124;DHT22;11731;48.592;8.858;2023-09-07T05:18:18;16.00;99.90
23124;DHT22;11731;48.592;8.858;2023-09-07T05:20:45;15.90;99.90
23124;DHT22;11731;48.592;8.858;2023-09-07T05:23:15;15.80;99.90
23124;DHT22;11731;48.592;8.858;2023-09-07T05:25:43;15.90;99.90
23124;DHT22;11731;48.592;8.858;2023-09-07T05:28:12;16.00;99.90
23124;DHT22;11731;48.592;8.858;2023-09-07T05:30:39;16.00;99.90
23124;DHT22;11731;48.592;8.858;2023-09-07T05:33:06;16.00;99.90
23124;DHT22;11731;48.592;8.858;2023-09-07T05:35:33;16.10;99.90
23124;DHT22;11731;48.592;8.858;2023-09-07T05:38:02;16.20;99.90
23124;DHT22;11731;48.592;8.858;2023-09-07T05:40:33;16.20;99.90
23124;DHT22;11731;48.592;8.858;2023-09-07T05:43:00;16.30;99.90
23124;DHT22;11731;48.592;8.858;2023-09-07T05:45:29;16.30;99.90
23124;DHT22;11731;48.592;8.858;2023-09-07T05:47:56;16.30;99.90
23124;DHT22;11731;48.592;8.858;2023-09-07T05:50:22;16.30;99.90
23124;DHT22;11731;48.592;8.858;2023-09-07T05:52:49;16.30;99.90
23124;DHT22;11731;48.592;8.858;2023-09-07T05:55:16;16.30;99.90
23124;DHT22;11731;48.592;8.858;2023-09-07T05:57:44;16.40;99.90
23124;DHT22;11731;48.592;8.858;2023-09-07T06:00:13;16.50;99.90
23124;DHT22;11731;48.592;8.858;2023-09-07T06:02:40;16.60;99.90
23124;DHT22;11731;48.592;8.858;2023-09-07T06:05:07;16.70;99.90
23124;DHT22;11731;48.592;8.858;2023-09-07T06:07:35;16.70;99.90
23124;DHT22;11731;48.592;8.858;2023-09-07T06:10:02;16.70;99.90
23124;DHT22;11731;48.592;8.858;2023-09-07T06:12:31;16.90;99.90
23124;DHT22;11731;48.592;8.858;2023-09-07T06:14:59;17.00;99.90
23124;DHT22;11731;48.592;8.858;2023-09-07T06:17:26;17.10;99.90
23124;DHT22;11731;48.592;8.858;2023-09-07T06:19:54;17.20;99.90
23124;DHT22;11731;48.592;8.858;2023-09-07T06:22:21;17.30;99.90
23124;DHT22;11731;48.592;8.858;2023-09-07T06:24:48;17.20;99.90
23124;DHT22;11731;48.592;8.858;2023-09-07T06:27:18;17.30;99.90
23124;DHT22;11731;48.592;8.858;2023-09-07T06:29:44;17.40;99.90
23124;DHT22;11731;48.592;8.858;2023-09-07T06:32:13;17.50;99.90
23124;DHT22;11731;48.592;8.858;2023-09-07T06:34:40;17.50;99.90
23124;DHT22;11731;48.592;8.858;2023-09-07T06:37:06;17.70;99.90
23124;DHT22;11731;48.592;8.858;2023-09-07T06:39:33;17.60;99.90
23124;DHT22;11731;48.592;8.858;2023-09-07T06:42:00;17.70;99.90
23124;DHT22;11731;48.592;8.858;2023-09-07T06:44:27;17.90;99.90
23124;DHT22;11731;48.592;8.858;2023-09-07T06:46:54;18.00;99.90
23124;DHT22;11731;48.592;8.858;2023-09-07T06:49:22;17.90;99.90
23124;DHT22;11731;48.592;8.858;2023-09-07T06:51:49;18.00;99.90
23124;DHT22;11731;48.592;8.858;2023-09-07T06:54:16;18.20;99.90
23124;DHT22;11731;48.592;8.858;2023-09-07T06:56:43;18.30;99.90
23124;DHT22;11731;48.592;8.858;2023-09-07T06:59:10;18.50;99.90
23124;DHT22;11731;48.592;8.858;2023-09-07T07:01:37;18.60;99.90
23124;DHT22;11731;48.592;8.858;2023-09-07T07:04:05;18.60;99.90
23124;DHT22;11731;48.592;8.858;2023-09-07T07:06:33;18.70;99.90
23124;DHT22;11731;48.592;8.858;2023-09-07T07:09:03;18.80;99.90
23124;DHT22;11731;48.592;8.858;2023-09-07T07:11:30;18.90;99.90
23124;DHT22;11731;48.592;8.858;2023-09-07T07:13:57;19.00;99.90
23124;DHT22;11731;48.592;8.858;2023-09-07T07:16:24;19.00;99.90
23124;DHT22;11731;48.592;8.858;2023-09-07T07:18:51;19.00;99.90
23124;DHT22;11731;48.592;8.858;2023-09-07T07:21:18;19.20;99.90
23124;DHT22;11731;48.592;8.858;2023-09-07T07:23:46;19.20;99.90
23124;DHT22;11731;48.592;8.858;2023-09-07T07:26:13;19.30;99.90
23124;DHT22;11731;48.592;8.858;2023-09-07T07:28:39;19.40;99.90
23124;DHT22;11731;48.592;8.858;2023-09-07T07:31:10;19.50;99.90
23124;DHT22;11731;48.592;8.858;2023-09-07T07:33:37;19.70;99.90
23124;DHT22;11731;48.592;8.858;2023-09-07T07:36:04;19.90;99.90
23124;DHT22;11731;48.592;8.858;2023-09-07T07:38:31;20.00;99.90
23124;DHT22;11731;48.592;8.858;2023-09-07T07:40:59;20.20;99.90
23124;DHT22;11731;48.592;8.858;2023-09-07T07:43:26;20.20;99.90
23124;DHT22;11731;48.592;8.858;2023-09-07T07:45:54;20.30;99.90
23124;DHT22;11731;48.592;8.858;2023-09-07T07:48:20;20.40;99.90
23124;DHT22;11731;48.592;8.858;2023-09-07T07:50:47;20.50;99.90
23124;DHT22;11731;48.592;8.858;2023-09-07T07:53:14;20.70;99.90
23124;DHT22;11731;48.592;8.858;2023-09-07T07:55:45;20.80;99.90
23124;DHT22;11731;48.592;8.858;2023-09-07T07:58:15;20.80;99.90
23124;DHT22;11731;48.592;8.858;2023-09-07T08:00:42;21.00;99.90
23124;DHT22;11731;48.592;8.858;2023-09-07T08:03:13;21.10;99.90
23124;DHT22;11731;48.592;8.858;2023-09-07T08:05:40;21.30;99.90
23124;DHT22;11731;48.592;8.858;2023-09-07T08:08:08;21.20;99.90
23124;DHT22;11731;48.592;8.858;2023-09-07T08:10:35;21.50;99.90
23124;DHT22;11731;48.592;8.858;2023-09-07T08:13:03;21.70;99.90
23124;DHT22;11731;48.592;8.858;2023-09-07T08:15:32;21.80;99.90
23124;DHT22;11731;48.592;8.858;2023-09-07T08:17:59;21.80;99.90
23124;DHT22;11731;48.592;8.858;2023-09-07T08:20:26;21.80;99.90
23124;DHT22;11731;48.592;8.858;2023-09-07T08:22:54;22.00;99.90
23124;DHT22;11731;48.592;8.858;2023-09-07T08:25:21;22.10;99.90
23124;DHT22;11731;48.592;8.858;2023-09-07T08:27:49;22.20;99.90
23124;DHT22;11731;48.592;8.858;2023-09-07T08:30:25;22.30;99.90
23124;DHT22;11731;48.592;8.858;2023-09-07T08:33:05;22.10;99.90
23124;DHT22;11731;48.592;8.858;2023-09-07T08:35:34;22.00;99.90
23124;DHT22;11731;48.592;8.858;2023-09-07T08:38:14;22.20;99.90
23124;DHT22;11731;48.592;8.858;2023-09-07T08:40:42;22.30;99.90
23124;DHT22;11731;48.592;8.858;2023-09-07T08:43:12;22.50;99.90
23124;DHT22;11731;48.592;8.858;2023-09-07T08:45:43;22.50;99.90
23124;DHT22;11731;48.592;8.858;2023-09-07T08:48:15;22.80;99.90
23124;DHT22;11731;48.592;8.858;2023-09-07T08:50:45;22.80;99.90
23124;DHT22;11731;48.592;8.858;2023-09-07T08:53:17;22.70;99.90
23124;DHT22;11731;48.592;8.858;2023-09-07T08:55:44;23.00;99.90
23124;DHT22;11731;48.592;8.858;2023-09-07T08:58:11;22.80;99.90
23124;DHT22;11731;48.592;8.858;2023-09-07T09:00:38;23.10;99.90
23124;DHT22;11731;48.592;8.858;2023-09-07T09:03:08;23.30;99.90
23124;DHT22;11731;48.592;8.858;2023-09-07T09:05:39;23.50;99.90
23124;DHT22;11731;48.592;8.858;2023-09-07T09:08:06;23.60;99.90
23124;DHT22;11731;48.592;8.858;2023-09-07T09:10:33;23.60;99.90
23124;DHT22;11731;48.592;8.858;2023-09-07T09:13:00;23.80;99.90
23124;DHT22;11731;48.592;8.858;2023-09-07T09:15:27;23.80;99.90
23124;DHT22;11731;48.592;8.858;2023-09-07T09:17:54;23.90;99.90
23124;DHT22;11731;48.592;8.858;2023-09-07T09:20:23;23.90;99.90
23124;DHT22;11731;48.592;8.858;2023-09-07T09:22:54;24.00;99.90
23124;DHT22;11731;48.592;8.858;2023-09-07T09:25:22;24.10;99.90
23124;DHT22;11731;48.592;8.858;2023-09-07T09:27:49;23.90;99.90
23124;DHT22;11731;48.592;8.858;2023-09-07T09:30:15;24.00;99.90
23124;DHT22;11731;48.592;8.858;2023-09-07T09:32:43;24.00;99.90
23124;DHT22;11731;48.592;8.858;2023-09-07T09:35:10;24.30;99.90
23124;DHT22;11731;48.592;8.858;2023-09-07T09:37:44;24.40;99.90
23124;DHT22;11731;48.592;8.858;2023-09-07T09:40:14;24.50;99.90
23124;DHT22;11731;48.592;8.858;2023-09-07T09:42:43;24.80;99.90
23124;DHT22;11731;48.592;8.858;2023-09-07T09:45:10;24.70;99.90
23124;DHT22;11731;48.592;8.858;2023-09-07T09:47:39;24.80;99.90
23124;DHT22;11731;48.592;8.858;2023-09-07T09:50:07;24.90;99.90
23124;DHT22;11731;48.592;8.858;2023-09-07T09:52:35;25.10;99.90
23124;DHT22;11731;48.592;8.858;2023-09-07T09:55:04;25.00;99.90
23124;DHT22;11731;48.592;8.858;2023-09-07T09:57:35;25.00;99.90
23124;DHT22;11731;48.592;8.858;2023-09-07T10:00:03;25.10;99.90
23124;DHT22;11731;48.592;8.858;2023-09-07T10:02:47;25.30;99.90
23124;DHT22;11731;48.592;8.858;2023-09-07T10:05:20;25.50;99.90
23124;DHT22;11731;48.592;8.858;2023-09-07T10:07:49;25.50;99.90
23124;DHT22;11731;48.592;8.858;2023-09-07T10:10:19;25.80;99.90
23124;DHT22;11731;48.592;8.858;2023-09-07T10:12:52;26.10;99.90
23124;DHT22;11731;48.592;8.858;2023-09-07T10:15:21;26.10;99.90
23124;DHT22;11731;48.592;8.858;2023-09-07T10:17:48;26.10;99.90
23124;DHT22;11731;48.592;8.858;2023-09-07T10:20:19;26.10;99.90
23124;DHT22;11731;48.592;8.858;2023-09-07T10:22:48;25.80;99.90
23124;DHT22;11731;48.592;8.858;2023-09-07T10:25:19;25.80;99.90
23124;DHT22;11731;48.592;8.858;2023-09-07T10:27:48;25.90;99.90
23124;DHT22;11731;48.592;8.858;2023-09-07T10:30:15;25.80;99.90
23124;DHT22;11731;48.592;8.858;2023-09-07T10:32:45;25.90;99.90
23124;DHT22;11731;48.592;8.858;2023-09-07T10:35:16;26.50;99.90
23124;DHT22;11731;48.592;8.858;2023-09-07T10:37:46;26.50;99.90
23124;DHT22;11731;48.592;8.858;2023-09-07T10:40:19;26.50;99.90
23124;DHT22;11731;48.592;8.858;2023-09-07T10:42:48;26.60;99.90
23124;DHT22;11731;48.592;8.858;2023-09-07T10:45:16;26.50;99.90
23124;DHT22;11731;48.592;8.858;2023-09-07T10:47:43;26.60;99.90
23124;DHT22;11731;48.592;8.858;2023-09-07T10:50:11;26.50;99.90
23124;DHT22;11731;48.592;8.858;2023-09-07T10:52:39;26.50;99.90
23124;DHT22;11731;48.592;8.858;2023-09-07T10:55:07;26.70;99.90
23124;DHT22;11731;48.592;8.858;2023-09-07T10:57:41;27.10;99.90
23124;DHT22;11731;48.592;8.858;2023-09-07T11:00:11;27.10;99.90
23124;DHT22;11731;48.592;8.858;2023-09-07T11:02:39;27.20;99.90
23124;DHT22;11731;48.592;8.858;2023-09-07T11:05:07;26.90;99.90
23124;DHT22;11731;48.592;8.858;2023-09-07T11:07:36;27.20;99.90
23124;DHT22;11731;48.592;8.858;2023-09-07T11:10:06;27.20;99.90
23124;DHT22;11731;48.592;8.858;2023-09-07T11:12:37;27.10;99.90
23124;DHT22;11731;48.592;8.858;2023-09-07T11:15:05;26.90;99.90
23124;DHT22;11731;48.592;8.858;2023-09-07T11:17:36;27.10;99.90
23124;DHT22;11731;48.592;8.858;2023-09-07T11:20:05;27.10;99.90
23124;DHT22;11731;48.592;8.858;2023-09-07T11:22:33;27.40;99.90
23124;DHT22;11731;48.592;8.858;2023-09-07T11:25:00;27.40;99.90
23124;DHT22;11731;48.592;8.858;2023-09-07T11:27:29;27.70;99.90
23124;DHT22;11731;48.592;8.858;2023-09-07T11:29:56;27.60;99.90
23124;DHT22;11731;48.592;8.858;2023-09-07T11:32:24;27.60;99.90
23124;DHT22;11731;48.592;8.858;2023-09-07T11:34:52;27.70;99.90
23124;DHT22;11731;48.592;8.858;2023-09-07T11:37:23;27.90;99.90
23124;DHT22;11731;48.592;8.858;2023-09-07T11:39:50;27.50;99.90
23124;DHT22;11731;48.592;8.858;2023-09-07T11:42:17;27.30;99.90
23124;DHT22;11731;48.592;8.858;2023-09-07T11:44:44;27.50;99.90
23124;DHT22;11731;48.592;8.858;2023-09-07T11:47:11;27.60;99.90
23124;DHT22;11731;48.592;8.858;2023-09-07T11:49:38;27.50;99.90
23124;DHT22;11731;48.592;8.858;2023-09-07T11:52:06;27.50;99.90
23124;DHT22;11731;48.592;8.858;2023-09-07T11:54:33;27.40;99.90
23124;DHT22;11731;48.592;8.858;2023-09-07T11:57:00;27.50;99.90
23124;DHT22;11731;48.592;8.858;2023-09-07T11:59:27;27.50;99.90
23124;DHT22;11731;48.592;8.858;2023-09-07T12:01:54;27.50;99.90
23124;DHT22;11731;48.592;8.858;2023-09-07T12:04:21;27.40;99.90
23124;DHT22;11731;48.592;8.858;2023-09-07T12:06:48;27.10;99.90
23124;DHT22;11731;48.592;8.858;2023-09-07T12:09:18;26.90;99.90
23124;DHT22;11731;48.592;8.858;2023-09-07T12:11:44;27.20;99.90
23124;DHT22;11731;48.592;8.858;2023-09-07T12:14:11;27.30;99.90
23124;DHT22;11731;48.592;8.858;2023-09-07T12:16:38;27.50;99.90
23124;DHT22;11731;48.592;8.858;2023-09-07T12:19:05;27.30;99.90
23124;DHT22;11731;48.592;8.858;2023-09-07T12:21:32;27.30;99.90
23124;DHT22;11731;48.592;8.858;2023-09-07T12:23:59;27.20;99.90
23124;DHT22;11731;48.592;8.858;2023-09-07T12:26:27;27.30;99.90
23124;DHT22;11731;48.592;8.858;2023-09-07T12:28:54;27.60;99.90
23124;DHT22;11731;48.592;8.858;2023-09-07T12:31:21;27.80;99.90
23124;DHT22;11731;48.592;8.858;2023-09-07T12:33:48;27.80;99.90
23124;DHT22;11731;48.592;8.858;2023-09-07T12:36:15;27.80;99.90
23124;DHT22;11731;48.592;8.858;2023-09-07T12:38:41;28.00;99.90
23124;DHT22;11731;48.592;8.858;2023-09-07T12:41:08;28.20;99.90
23124;DHT22;11731;48.592;8.858;2023-09-07T12:43:37;28.20;99.90
23124;DHT22;11731;48.592;8.858;2023-09-07T12:46:03;28.20;99.90
23124;DHT22;11731;48.592;8.858;2023-09-07T12:48:30;27.80;99.90
23124;DHT22;11731;48.592;8.858;2023-09-07T12:50:57;27.70;99.90
23124;DHT22;11731;48.592;8.858;2023-09-07T12:53:24;27.30;99.90
23124;DHT22;11731;48.592;8.858;2023-09-07T12:55:52;27.40;99.90
23124;DHT22;11731;48.592;8.858;2023-09-07T12:58:19;27.50;99.90
23124;DHT22;11731;48.592;8.858;2023-09-07T13:00:47;27.40;99.90
23124;DHT22;11731;48.592;8.858;2023-09-07T13:03:16;27.30;99.90
23124;DHT22;11731;48.592;8.858;2023-09-07T13:05:43;27.60;99.90
23124;DHT22;11731;48.592;8.858;2023-09-07T13:08:10;27.60;99.90
23124;DHT22;11731;48.592;8.858;2023-09-07T13:10:37;27.50;99.90
23124;DHT22;11731;48.592;8.858;2023-09-07T13:13:05;27.70;99.90
23124;DHT22;11731;48.592;8.858;2023-09-07T13:15:32;27.60;99.90
23124;DHT22;11731;48.592;8.858;2023-09-07T13:18:00;28.10;99.90
23124;DHT22;11731;48.592;8.858;2023-09-07T13:20:27;28.40;99.90
23124;DHT22;11731;48.592;8.858;2023-09-07T13:22:54;28.30;99.90
23124;DHT22;11731;48.592;8.858;2023-09-07T13:25:20;28.20;99.90
23124;DHT22;11731;48.592;8.858;2023-09-07T13:27:47;28.50;99.90
23124;DHT22;11731;48.592;8.858;2023-09-07T13:30:15;28.50;99.90
23124;DHT22;11731;48.592;8.858;2023-09-07T13:32:41;28.50;99.90
23124;DHT22;11731;48.592;8.858;2023-09-07T13:35:12;28.40;99.90
23124;DHT22;11731;48.592;8.858;2023-09-07T13:37:39;28.80;99.90
23124;DHT22;11731;48.592;8.858;2023-09-07T13:40:07;29.00;99.90
23124;DHT22;11731;48.592;8.858;2023-09-07T13:42:34;29.40;99.90
23124;DHT22;11731;48.592;8.858;2023-09-07T13:45:01;29.40;99.90
23124;DHT22;11731;48.592;8.858;2023-09-07T13:47:28;29.10;99.90
23124;DHT22;11731;48.592;8.858;2023-09-07T13:49:54;29.20;99.90
23124;DHT22;11731;48.592;8.858;2023-09-07T13:52:23;28.80;99.90
23124;DHT22;11731;48.592;8.858;2023-09-07T13:54:49;28.60;99.90
23124;DHT22;11731;48.592;8.858;2023-09-07T13:57:16;28.40;99.90
23124;DHT22;11731;48.592;8.858;2023-09-07T13:59:43;28.90;99.90
23124;DHT22;11731;48.592;8.858;2023-09-07T14:02:10;29.30;99.90
23124;DHT22;11731;48.592;8.858;2023-09-07T14:04:37;29.70;99.90
23124;DHT22;11731;48.592;8.858;2023-09-07T14:07:04;29.70;99.90
23124;DHT22;11731;48.592;8.858;2023-09-07T14:09:32;29.50;99.90
23124;DHT22;11731;48.592;8.858;2023-09-07T14:11:59;29.30;99.90
23124;DHT22;11731;48.592;8.858;2023-09-07T14:14:26;29.40;99.90
23124;DHT22;11731;48.592;8.858;2023-09-07T14:16:53;29.30;99.90
23124;DHT22;11731;48.592;8.858;2023-09-07T14:19:22;29.40;99.90
23124;DHT22;11731;48.592;8.858;2023-09-07T14:21:49;29.40;99.90
23124;DHT22;11731;48.592;8.858;2023-09-07T14:24:15;29.30;99.90
23124;DHT22;11731;48.592;8.858;2023-09-07T14:26:44;29.20;99.90
23124;DHT22;11731;48.592;8.858;2023-09-07T14:29:11;28.90;99.90
23124;DHT22;11731;48.592;8.858;2023-09-07T14:31:38;29.00;99.90
23124;DHT22;11731;48.592;8.858;2023-09-07T14:34:05;29.00;99.90
23124;DHT22;11731;48.592;8.858;2023-09-07T14:36:32;29.10;99.90
23124;DHT22;11731;48.592;8.858;2023-09-07T14:38:59;29.10;99.90
23124;DHT22;11731;48.592;8.858;2023-09-07T14:41:25;29.30;99.90
23124;DHT22;11731;48.592;8.858;2023-09-07T14:43:55;29.60;99.90
23124;DHT22;11731;48.592;8.858;2023-09-07T14:46:22;29.60;99.40
23124;DHT22;11731;48.592;8.858;2023-09-07T14:48:50;29.90;99.00
23124;DHT22;11731;48.592;8.858;2023-09-07T14:51:17;29.90;99.00
23124;DHT22;11731;48.592;8.858;2023-09-07T14:53:44;30.30;98.30
23124;DHT22;11731;48.592;8.858;2023-09-07T14:56:12;30.30;97.90
23124;DHT22;11731;48.592;8.858;2023-09-07T14:58:39;29.70;98.30
23124;DHT22;11731;48.592;8.858;2023-09-07T15:01:07;29.70;98.50
23124;DHT22;11731;48.592;8.858;2023-09-07T15:03:34;29.60;98.00
23124;DHT22;11731;48.592;8.858;2023-09-07T15:06:05;29.40;98.40
23124;DHT22;11731;48.592;8.858;2023-09-07T15:08:32;29.50;98.30
23124;DHT22;11731;48.592;8.858;2023-09-07T15:10:59;29.40;98.20
23124;DHT22;11731;48.592;8.858;2023-09-07T15:13:26;29.30;97.90
23124;DHT22;11731;48.592;8.858;2023-09-07T15:15:54;29.40;98.10
23124;DHT22;11731;48.592;8.858;2023-09-07T15:18:22;29.60;98.40
23124;DHT22;11731;48.592;8.858;2023-09-07T15:20:49;29.30;98.10
23124;DHT22;11731;48.592;8.858;2023-09-07T15:23:22;29.50;97.90
23124;DHT22;11731;48.592;8.858;2023-09-07T15:25:49;29.80;97.90
23124;DHT22;11731;48.592;8.858;2023-09-07T15:28:17;30.30;97.30
23124;DHT22;11731;48.592;8.858;2023-09-07T15:30:44;30.20;97.10
23124;DHT22;11731;48.592;8.858;2023-09-07T15:33:11;30.10;97.10